Time;durP1;ratioP1;P1;durP2;ratioP2;P2;SDS_P1;SDS_P2;PMS_P1;PMS_P2;Temp;Humidity;BMP_temperature;BMP_pressure;BME280_temperature;BME280_humidity;BME280_pressure;Samples;Min_cycle;Max_cycle;Signal;HPM_P1;HPM_P2
2022/06/19 00:02:18;;;;;;;0.00;0.00;;;21.30;76.00;;;;;;5035071;28;20064;-74
2022/06/19 00:04:46;;;;;;;0.08;0.08;;;21.20;75.90;;;;;;5052943;28;20473;-74
2022/06/19 00:07:12;;;;;;;0.10;0.10;;;21.10;76.20;;;;;;5034991;28;20094;-75
2022/06/19 00:09:38;;;;;;;0.45;0.28;;;21.10;76.50;;;;;;5035035;28;20021;-74
2022/06/19 00:12:05;;;;;;;0.20;0.20;;;21.10;76.60;;;;;;5052784;28;20040;-74
2022/06/19 00:14:33;;;;;;;0.10;0.10;;;21.10;76.60;;;;;;5034941;28;20036;-74
2022/06/19 00:17:00;;;;;;;0.00;0.00;;;21.00;76.20;;;;;;5034775;28;20033;-74
2022/06/19 00:19:26;;;;;;;0.05;0.05;;;20.90;76.10;;;;;;5034741;28;20021;-74
2022/06/19 00:21:52;;;;;;;0.00;0.00;;;21.10;74.50;;;;;;5034734;28;20021;-74
2022/06/19 00:24:18;;;;;;;0.00;0.00;;;21.10;75.10;;;;;;5052648;28;20299;-74
2022/06/19 00:26:43;;;;;;;0.00;0.00;;;21.50;73.10;;;;;;5034614;28;20040;-75
2022/06/19 00:29:09;;;;;;;0.00;0.00;;;21.70;72.10;;;;;;5052503;28;20127;-75
2022/06/19 00:31:35;;;;;;;0.10;0.10;;;21.90;71.30;;;;;;5034640;28;20029;-74
2022/06/19 00:34:01;;;;;;;0.00;0.00;;;22.20;70.70;;;;;;5034646;28;20051;-74
2022/06/19 00:36:27;;;;;;;0.00;0.00;;;22.10;70.30;;;;;;5034576;28;20036;-74
2022/06/19 00:38:55;;;;;;;0.10;0.10;;;21.90;71.40;;;;;;5052225;28;20025;-74
2022/06/19 00:41:21;;;;;;;0.00;0.00;;;21.80;71.40;;;;;;5034325;28;20540;-74
2022/06/19 00:43:55;;;;;;;0.47;0.43;;;21.60;72.40;;;;;;5052262;28;20017;-74
2022/06/19 00:47:07;;;;;;;0.10;0.10;;;21.40;73.40;;;;;;5052127;28;20033;-74
2022/06/19 00:49:38;;;;;;;;;;;21.30;73.90;;;;;;4971505;28;20063;-74
2022/06/19 00:52:06;;;;;;;0.10;0.10;;;21.00;74.50;;;;;;4971340;28;19910;-74
2022/06/19 00:54:41;;;;;;;0.05;0.05;;;21.00;74.10;;;;;;5008660;28;20036;-74
2022/06/19 00:57:08;;;;;;;0.10;0.10;;;21.00;73.90;;;;;;5034365;28;20027;-74
2022/06/19 00:59:37;;;;;;;0.10;0.10;;;21.10;73.40;;;;;;5051586;28;20036;-74
2022/06/19 01:02:04;;;;;;;0.10;0.10;;;21.40;72.10;;;;;;5017818;28;20021;-74
2022/06/19 01:04:36;;;;;;;0.00;0.00;;;21.50;71.70;;;;;;5052155;28;20439;-74
2022/06/19 01:07:03;;;;;;;3.33;0.70;;;21.50;71.20;;;;;;5052144;28;20029;-74
2022/06/19 01:09:29;;;;;;;0.10;0.10;;;21.10;71.80;;;;;;5034100;28;20029;-74
2022/06/19 01:11:55;;;;;;;0.10;0.10;;;20.90;71.60;;;;;;5051944;28;20078;-74
2022/06/19 01:14:23;;;;;;;0.00;0.00;;;21.00;72.30;;;;;;5051927;28;20025;-74
2022/06/19 01:16:50;;;;;;;0.00;0.00;;;21.10;72.00;;;;;;5033918;28;20021;-74
2022/06/19 01:19:33;;;;;;;0.00;0.00;;;21.20;71.20;;;;;;5033847;28;20056;-74
2022/06/19 01:22:16;;;;;;;0.00;0.00;;;21.30;71.00;;;;;;5051909;28;20036;-74
2022/06/19 01:25:03;;;;;;;0.00;0.00;;;21.50;70.40;;;;;;5051799;28;20511;-74
2022/06/19 01:30:17;;;;;;;0.10;0.10;;;21.40;70.60;;;;;;5051745;28;20083;-75
2022/06/19 01:32:47;;;;;;;0.00;0.00;;;21.20;70.50;;;;;;5051854;28;20029;-74
2022/06/19 01:35:15;;;;;;;0.10;0.10;;;21.00;71.40;;;;;;5033991;28;20048;-74
2022/06/19 01:37:42;;;;;;;0.00;0.00;;;21.00;71.90;;;;;;5051744;28;20376;-74
2022/06/19 01:40:18;;;;;;;0.32;0.32;;;21.00;71.40;;;;;;5051629;28;20086;-74
2022/06/19 01:42:44;;;;;;;0.25;0.25;;;20.80;72.00;;;;;;5051578;28;20040;-74
2022/06/19 01:45:11;;;;;;;0.10;0.10;;;20.60;73.30;;;;;;5051611;28;20021;-74
2022/06/19 01:47:37;;;;;;;0.00;0.00;;;20.50;73.30;;;;;;5051679;28;20017;-74
2022/06/19 01:50:08;;;;;;;1.88;0.17;;;20.60;73.30;;;;;;5051461;28;20025;-75
2022/06/19 01:52:34;;;;;;;0.10;0.10;;;20.80;72.40;;;;;;5033845;28;20064;-74
2022/06/19 01:55:15;;;;;;;0.00;0.00;;;20.70;71.80;;;;;;5051535;28;20028;-74
2022/06/19 01:57:45;;;;;;;0.15;0.15;;;20.60;72.10;;;;;;5051602;28;20499;-74
2022/06/19 02:00:18;;;;;;;0.05;0.05;;;20.70;72.20;;;;;;5051529;28;20028;-74
2022/06/19 02:02:48;;;;;;;0.10;0.10;;;20.80;72.20;;;;;;5033557;28;20025;-74
2022/06/19 02:05:13;;;;;;;0.00;0.00;;;20.80;72.50;;;;;;5051495;28;20017;-74
2022/06/19 02:07:39;;;;;;;0.00;0.00;;;20.60;73.10;;;;;;5051467;28;20074;-74
2022/06/19 02:10:06;;;;;;;0.20;0.20;;;20.50;73.90;;;;;;5051245;28;20095;-75
2022/06/19 02:12:32;;;;;;;0.00;0.00;;;20.60;72.70;;;;;;5055230;28;20025;-74
2022/06/19 02:15:01;;;;;;;0.00;0.00;;;20.60;72.30;;;;;;5055282;28;20024;-74
2022/06/19 02:17:35;;;;;;;0.05;0.05;;;20.50;72.30;;;;;;5020525;28;20033;-74
2022/06/19 02:20:01;;;;;;;0.00;0.00;;;20.60;73.40;;;;;;5054950;28;20059;-74
2022/06/19 02:22:27;;;;;;;0.00;0.00;;;21.00;72.50;;;;;;5054944;28;20052;-74
2022/06/19 02:24:53;;;;;;;0.00;0.00;;;20.90;73.10;;;;;;5054856;28;20033;-74
2022/06/19 02:27:19;;;;;;;0.00;0.00;;;20.60;74.20;;;;;;5054842;28;20025;-74
2022/06/19 02:29:45;;;;;;;0.10;0.10;;;20.40;74.80;;;;;;5054745;28;20024;-74
2022/06/19 02:32:21;;;;;;;0.10;0.10;;;20.50;75.00;;;;;;5037118;28;20079;-74
2022/06/19 02:34:48;;;;;;;0.00;0.00;;;20.30;74.60;;;;;;5020464;28;20029;-74
2022/06/19 02:37:17;;;;;;;0.10;0.10;;;20.10;75.60;;;;;;5036919;28;20037;-74
2022/06/19 02:40:08;;;;;;;0.10;0.10;;;19.90;76.40;;;;;;5036671;28;20065;-74
2022/06/19 02:42:39;;;;;;;0.00;0.00;;;19.80;76.70;;;;;;5036803;28;20036;-74
2022/06/19 02:45:27;;;;;;;0.10;0.10;;;20.10;76.40;;;;;;5036798;28;20025;-74
2022/06/19 02:47:55;;;;;;;0.00;0.00;;;20.30;76.20;;;;;;5053976;28;20519;-74
2022/06/19 02:50:25;;;;;;;0.10;0.10;;;20.00;75.90;;;;;;5054352;28;20481;-74
2022/06/19 02:52:51;;;;;;;0.05;0.05;;;19.90;76.60;;;;;;5054468;28;20053;-74
2022/06/19 02:55:18;;;;;;;0.15;0.15;;;20.00;76.60;;;;;;5036572;28;20149;-74
2022/06/19 02:57:45;;;;;;;0.00;0.00;;;20.20;76.20;;;;;;5054290;28;20033;-74
2022/06/19 03:00:26;;;;;;;0.10;0.10;;;20.20;74.90;;;;;;5036421;28;20021;-74
2022/06/19 03:02:57;;;;;;;0.15;0.15;;;20.20;74.80;;;;;;5054109;28;20568;-74
2022/06/19 03:05:26;;;;;;;0.10;0.10;;;20.20;74.90;;;;;;5054202;28;20108;-74
2022/06/19 03:07:52;;;;;;;0.00;0.00;;;20.20;75.40;;;;;;5054049;28;20021;-74
2022/06/19 03:10:18;;;;;;;0.10;0.10;;;20.30;73.40;;;;;;5053911;28;20437;-74
2022/06/19 03:12:44;;;;;;;0.00;0.00;;;20.50;72.30;;;;;;5019633;28;20044;-74
2022/06/19 03:15:11;;;;;;;0.10;0.10;;;20.50;72.50;;;;;;5053854;28;20109;-74
2022/06/19 03:17:38;;;;;;;0.00;0.00;;;20.40;72.40;;;;;;5053908;28;20013;-75
2022/06/19 03:20:05;;;;;;;0.10;0.10;;;20.30;72.20;;;;;;5036128;28;20092;-74
2022/06/19 03:22:30;;;;;;;0.10;0.10;;;20.30;71.00;;;;;;5035482;28;20396;-74
2022/06/19 03:24:56;;;;;;;1.40;0.28;;;20.30;71.60;;;;;;5053791;28;20021;-75
2022/06/19 03:27:22;;;;;;;0.10;0.10;;;20.30;70.30;;;;;;5053694;28;20067;-74
2022/06/19 03:29:47;;;;;;;0.63;0.35;;;20.30;69.90;;;;;;5035829;28;20036;-74
2022/06/19 03:32:14;;;;;;;0.10;0.10;;;20.30;69.80;;;;;;5053603;28;20028;-74
2022/06/19 03:34:42;;;;;;;7.43;0.55;;;20.40;69.40;;;;;;5035692;28;20021;-74
2022/06/19 03:37:08;;;;;;;0.20;0.20;;;20.50;68.10;;;;;;5053345;28;20068;-74
2022/06/19 03:39:35;;;;;;;0.52;0.52;;;20.70;67.20;;;;;;5053389;28;20447;-74
2022/06/19 03:42:02;;;;;;;0.08;0.08;;;20.80;66.40;;;;;;5067377;22;20041;-71
2022/06/19 03:44:28;;;;;;;0.00;0.00;;;20.80;66.50;;;;;;5034443;28;20059;-72
2022/06/19 03:46:54;;;;;;;0.00;0.00;;;21.00;66.40;;;;;;5053180;28;20049;-72
2022/06/19 03:49:19;;;;;;;0.00;0.00;;;21.10;66.20;;;;;;5053198;28;20031;-72
2022/06/19 03:51:45;;;;;;;0.03;0.03;;;21.30;65.80;;;;;;5035353;28;20416;-72
2022/06/19 03:54:11;;;;;;;0.10;0.10;;;21.20;66.40;;;;;;5053191;28;20581;-72
2022/06/19 03:56:37;;;;;;;0.10;0.10;;;21.30;67.00;;;;;;5052832;28;20025;-73
2022/06/19 03:59:04;;;;;;;0.00;0.00;;;21.30;67.40;;;;;;5053150;28;20418;-72
2022/06/19 04:01:35;;;;;;;0.03;0.03;;;21.20;67.70;;;;;;5035193;28;20464;-72
2022/06/19 04:04:01;;;;;;;0.10;0.10;;;21.20;68.60;;;;;;5018620;28;20033;-73
2022/06/19 04:06:31;;;;;;;0.10;0.10;;;21.10;69.40;;;;;;5052725;28;20175;-72
2022/06/19 04:08:58;;;;;;;0.08;0.08;;;20.90;70.90;;;;;;5052681;28;20033;-72
2022/06/19 04:11:26;;;;;;;0.00;0.00;;;20.80;71.30;;;;;;5052814;28;20090;-72
2022/06/19 04:13:54;;;;;;;0.10;0.10;;;20.90;71.70;;;;;;5034981;28;20021;-72
2022/06/19 04:16:23;;;;;;;0.10;0.10;;;21.10;71.20;;;;;;5018155;28;20047;-72
2022/06/19 04:18:51;;;;;;;0.05;0.05;;;21.10;70.20;;;;;;5052748;28;20021;-72
2022/06/19 04:21:20;;;;;;;0.10;0.10;;;21.00;71.40;;;;;;5052580;28;20024;-72
2022/06/19 04:23:46;;;;;;;0.00;0.00;;;21.10;71.50;;;;;;5052867;28;20031;-73
2022/06/19 04:26:15;;;;;;;0.10;0.10;;;21.10;71.50;;;;;;5052735;28;20075;-72
2022/06/19 04:28:41;;;;;;;0.00;0.00;;;21.20;71.50;;;;;;5052420;28;20492;-72
2022/06/19 04:31:08;;;;;;;0.10;0.10;;;21.20;72.10;;;;;;5018192;28;20033;-72
2022/06/19 04:33:38;;;;;;;0.00;0.00;;;21.20;72.10;;;;;;5051737;28;20578;-73
2022/06/19 04:36:14;;;;;;;0.10;0.10;;;21.30;70.80;;;;;;5052273;28;20021;-72
2022/06/19 04:38:41;;;;;;;0.10;0.10;;;21.30;71.20;;;;;;5052277;28;20271;-72
2022/06/19 04:41:18;;;;;;;0.00;0.00;;;21.50;70.00;;;;;;5052378;28;20021;-72
2022/06/19 04:43:44;;;;;;;0.00;0.00;;;21.70;69.40;;;;;;5052232;28;20029;-73
2022/06/19 04:46:10;;;;;;;0.00;0.00;;;21.80;70.60;;;;;;5052457;28;20079;-72
2022/06/19 04:48:37;;;;;;;0.13;0.13;;;22.00;67.60;;;;;;5051881;28;20028;-72
2022/06/19 04:51:03;;;;;;;0.00;0.00;;;22.10;67.70;;;;;;5034212;28;20039;-73
2022/06/19 04:53:29;;;;;;;0.08;0.08;;;22.10;67.30;;;;;;5017808;28;20025;-72
2022/06/19 04:55:55;;;;;;;0.00;0.00;;;22.20;67.40;;;;;;5052026;28;20103;-72
2022/06/19 04:58:22;;;;;;;0.10;0.10;;;22.30;66.90;;;;;;5051781;28;20079;-72
2022/06/19 05:00:52;;;;;;;0.00;0.00;;;22.40;67.10;;;;;;5034612;28;20112;-72
2022/06/19 05:03:20;;;;;;;0.00;0.00;;;22.60;67.20;;;;;;5051984;28;20021;-72
2022/06/19 05:05:47;;;;;;;0.00;0.00;;;22.70;66.80;;;;;;5034126;28;20059;-72
2022/06/19 05:08:12;;;;;;;0.00;0.00;;;22.80;66.30;;;;;;5051685;28;20028;-72
2022/06/19 05:10:39;;;;;;;0.00;0.00;;;22.80;66.80;;;;;;5051925;28;20033;-73
2022/06/19 05:13:06;;;;;;;0.00;0.00;;;22.80;65.50;;;;;;5051820;28;20040;-72
2022/06/19 05:15:33;;;;;;;0.10;0.10;;;22.90;65.40;;;;;;5051711;28;20028;-72
2022/06/19 05:17:58;;;;;;;1.35;0.57;;;23.00;66.40;;;;;;5051677;28;20029;-72
2022/06/19 05:20:24;;;;;;;0.00;0.00;;;23.00;66.40;;;;;;5033751;28;20412;-73
2022/06/19 05:22:50;;;;;;;6.22;1.45;;;23.00;65.60;;;;;;5051803;28;20056;-72
2022/06/19 05:25:16;;;;;;;0.00;0.00;;;23.00;64.00;;;;;;5052188;28;20087;-72
2022/06/19 05:27:41;;;;;;;0.00;0.00;;;23.00;65.10;;;;;;5051551;28;20060;-72
2022/06/19 05:30:10;;;;;;;0.00;0.00;;;23.00;64.90;;;;;;5033826;28;20492;-72
2022/06/19 05:32:35;;;;;;;0.00;0.00;;;23.10;65.20;;;;;;5051754;28;20104;-72
2022/06/19 05:35:01;;;;;;;0.00;0.00;;;23.20;64.80;;;;;;5051707;28;20053;-72
2022/06/19 05:37:27;;;;;;;0.20;0.13;;;23.30;64.50;;;;;;5033755;28;20029;-72
2022/06/19 05:39:53;;;;;;;0.03;0.03;;;23.30;62.70;;;;;;5051865;28;20443;-73
2022/06/19 05:42:19;;;;;;;0.00;0.00;;;23.30;64.00;;;;;;5051595;28;20044;-73
2022/06/19 05:44:45;;;;;;;3.35;0.70;;;23.30;63.10;;;;;;5034805;28;20025;-73
2022/06/19 05:47:10;;;;;;;0.00;0.00;;;23.40;63.40;;;;;;5055368;28;20029;-72
2022/06/19 05:49:36;;;;;;;0.00;0.00;;;23.50;64.30;;;;;;5055450;28;20056;-72
2022/06/19 05:52:12;;;;;;;0.10;0.10;;;23.60;63.70;;;;;;5055585;28;20104;-75
2022/06/19 05:54:38;;;;;;;0.10;0.10;;;23.70;62.90;;;;;;5055460;28;20025;-75
2022/06/19 05:57:04;;;;;;;0.00;0.00;;;23.80;63.50;;;;;;5055268;28;20025;-75
2022/06/19 05:59:30;;;;;;;9.18;0.47;;;24.00;63.80;;;;;;5055454;28;20028;-73
2022/06/19 06:01:55;;;;;;;1.23;1.23;;;24.10;61.80;;;;;;5055301;28;20456;-72
2022/06/19 06:04:22;;;;;;;0.03;0.03;;;24.10;61.80;;;;;;5055171;28;20021;-73
2022/06/19 06:06:48;;;;;;;0.00;0.00;;;24.10;62.10;;;;;;5037231;28;20422;-73
2022/06/19 06:09:15;;;;;;;0.10;0.10;;;24.20;62.80;;;;;;5037298;28;20031;-73
2022/06/19 06:11:41;;;;;;;0.38;0.38;;;24.30;62.80;;;;;;5055108;28;20031;-72
2022/06/19 06:14:07;;;;;;;0.25;0.13;;;24.40;62.90;;;;;;5055133;28;20107;-73
2022/06/19 06:16:32;;;;;;;0.20;0.20;;;24.30;62.30;;;;;;5054857;28;20021;-73
2022/06/19 06:18:58;;;;;;;0.00;0.00;;;24.40;62.80;;;;;;5055381;28;20032;-73
2022/06/19 06:21:25;;;;;;;0.40;0.40;;;24.60;62.70;;;;;;5054876;28;20029;-73
2022/06/19 06:23:52;;;;;;;12.82;2.20;;;24.80;62.20;;;;;;5054848;28;20028;-72
2022/06/19 06:26:29;;;;;;;0.30;0.17;;;24.80;60.60;;;;;;5054756;28;20025;-73
2022/06/19 06:28:58;;;;;;;0.00;0.00;;;25.00;60.90;;;;;;5036868;28;20025;-73
2022/06/19 06:31:24;;;;;;;0.10;0.10;;;25.10;60.00;;;;;;5054681;28;20023;-72
2022/06/19 06:33:50;;;;;;;2.08;0.73;;;25.10;59.40;;;;;;5020290;28;20032;-72
2022/06/19 06:36:16;;;;;;;0.08;0.08;;;25.30;60.20;;;;;;5020040;28;20292;-73
2022/06/19 06:38:42;;;;;;;9.23;1.55;;;25.50;58.80;;;;;;5054411;28;20021;-73
2022/06/19 06:41:10;;;;;;;4.68;0.95;;;25.60;59.20;;;;;;5036651;28;20086;-73
2022/06/19 06:43:37;;;;;;;5.88;1.77;;;25.80;58.50;;;;;;5054383;28;20083;-72
2022/06/19 06:46:08;;;;;;;0.00;0.00;;;25.80;57.70;;;;;;5054426;28;20021;-73
2022/06/19 06:48:34;;;;;;;0.38;0.38;;;25.90;58.00;;;;;;5054370;28;20032;-72
2022/06/19 06:51:05;;;;;;;3.30;1.02;;;26.10;56.90;;;;;;5054553;28;20033;-73
2022/06/19 06:53:31;;;;;;;0.00;0.00;;;26.20;56.60;;;;;;5054299;28;20037;-73
2022/06/19 06:55:56;;;;;;;2.10;1.63;;;26.30;56.60;;;;;;5053650;28;20095;-74
2022/06/19 06:58:22;;;;;;;1.25;0.60;;;26.40;56.80;;;;;;5053718;28;20055;-72
2022/06/19 07:00:48;;;;;;;0.00;0.00;;;26.30;57.00;;;;;;5054252;28;20123;-73
2022/06/19 07:03:14;;;;;;;0.00;0.00;;;26.40;58.30;;;;;;5053983;28;20033;-73
2022/06/19 07:05:39;;;;;;;3.33;1.65;;;26.50;57.80;;;;;;5036373;28;20523;-73
2022/06/19 07:08:05;;;;;;;48.67;18.23;;;26.70;58.30;;;;;;5053842;28;20052;-73
2022/06/19 07:10:31;;;;;;;2.17;0.68;;;26.80;58.70;;;;;;5053770;28;20032;-73
2022/06/19 07:12:57;;;;;;;3.63;1.95;;;26.90;58.50;;;;;;5053924;28;20029;-73
2022/06/19 07:15:24;;;;;;;12.15;11.05;;;26.90;58.80;;;;;;5053745;28;20482;-74
2022/06/19 07:17:49;;;;;;;0.43;0.43;;;27.00;59.30;;;;;;5035606;28;20029;-73
2022/06/19 07:20:16;;;;;;;0.80;0.47;;;27.10;59.50;;;;;;5035843;28;20043;-73
2022/06/19 07:22:42;;;;;;;1.13;1.05;;;27.20;59.60;;;;;;5053753;28;20033;-73
2022/06/19 07:25:14;;;;;;;1.70;1.58;;;27.40;59.20;;;;;;5053728;28;20028;-73
2022/06/19 07:27:39;;;;;;;0.00;0.00;;;27.60;58.60;;;;;;5035738;28;20068;-74
2022/06/19 07:30:06;;;;;;;0.00;0.00;;;27.90;58.90;;;;;;5035810;28;20114;-73
2022/06/19 07:32:31;;;;;;;0.00;0.00;;;28.10;57.80;;;;;;5053502;28;20033;-74
2022/06/19 07:34:57;;;;;;;0.00;0.00;;;28.20;56.60;;;;;;5053544;28;20495;-73
2022/06/19 07:37:23;;;;;;;0.10;0.10;;;28.30;56.50;;;;;;5053231;28;20096;-73
2022/06/19 07:39:48;;;;;;;0.00;0.00;;;28.50;55.90;;;;;;5053443;28;20024;-73
2022/06/19 07:42:14;;;;;;;0.00;0.00;;;28.60;55.70;;;;;;5035416;28;20028;-73
2022/06/19 07:44:40;;;;;;;0.00;0.00;;;28.80;55.90;;;;;;5053360;28;20028;-73
2022/06/19 07:50:13;;;;;;;0.00;0.00;;;29.20;56.90;;;;;;5053207;28;20017;-73
2022/06/19 07:52:45;;;;;;;0.00;0.00;;;29.30;56.10;;;;;;5035523;28;20025;-73
2022/06/19 07:55:12;;;;;;;;;;;29.60;55.80;;;;;;5035806;28;20103;-73
2022/06/19 07:57:38;;;;;;;20.17;2.17;;;29.70;55.00;;;;;;5052886;28;20002;-74
2022/06/19 08:00:09;;;;;;;0.00;0.00;;;29.70;52.70;;;;;;5053020;28;20524;-73
2022/06/19 08:02:35;;;;;;;;;;;29.80;52.00;;;;;;5053534;28;20024;-73
2022/06/19 08:05:02;;;;;;;0.20;0.20;;;29.90;51.90;;;;;;5052990;28;19905;-74
2022/06/19 08:07:28;;;;;;;0.73;0.73;;;30.00;50.60;;;;;;5034943;28;20481;-73
2022/06/19 08:09:54;;;;;;;0.22;0.22;;;30.20;50.20;;;;;;5034818;28;20430;-73
2022/06/19 08:12:20;;;;;;;0.38;0.38;;;30.40;49.10;;;;;;5052801;28;20028;-73
2022/06/19 08:14:46;;;;;;;0.00;0.00;;;30.60;48.50;;;;;;5052756;28;20047;-73
2022/06/19 08:17:12;;;;;;;8.48;2.60;;;30.80;48.40;;;;;;5052555;28;20025;-73
2022/06/19 08:19:38;;;;;;;0.47;0.47;;;30.90;47.40;;;;;;5052625;28;20032;-74
2022/06/19 08:22:04;;;;;;;0.00;0.00;;;31.00;48.10;;;;;;5034733;28;20021;-74
2022/06/19 08:24:29;;;;;;;2.17;1.52;;;31.10;48.70;;;;;;5052432;28;20061;-74
2022/06/19 08:27:04;;;;;;;0.63;0.40;;;31.10;46.90;;;;;;5052416;28;20082;-74
2022/06/19 08:29:30;;;;;;;0.00;0.00;;;31.00;47.40;;;;;;5052377;28;20025;-74
2022/06/19 08:31:56;;;;;;;0.00;0.00;;;31.30;48.20;;;;;;5052486;28;20051;-74
2022/06/19 08:34:22;;;;;;;0.20;0.10;;;31.50;47.20;;;;;;5052462;28;20058;-74
2022/06/19 08:36:48;;;;;;;0.00;0.00;;;31.60;46.60;;;;;;5052207;28;20029;-74
2022/06/19 08:39:17;;;;;;;0.00;0.00;;;31.50;47.10;;;;;;5052215;28;20033;-74
2022/06/19 08:42:28;;;;;;;0.00;0.00;;;31.70;47.30;;;;;;5052139;28;20037;-73
2022/06/19 08:45:25;;;;;;;0.00;0.00;;;31.90;47.10;;;;;;5052367;28;20108;-74
2022/06/19 08:48:06;;;;;;;0.00;0.00;;;32.50;47.80;;;;;;5052068;28;20029;-74
2022/06/19 08:50:40;;;;;;;0.00;0.00;;;32.60;45.80;;;;;;5052035;28;20029;-74
2022/06/19 08:53:24;;;;;;;0.00;0.00;;;32.80;45.80;;;;;;5051642;28;20380;-74
2022/06/19 08:56:08;;;;;;;0.00;0.00;;;33.00;46.70;;;;;;5051872;28;20033;-74
2022/06/19 08:58:42;;;;;;;0.00;0.00;;;33.10;44.50;;;;;;5051704;28;20402;-75
2022/06/19 09:01:16;;;;;;;0.40;0.30;;;33.30;44.60;;;;;;5051974;28;20401;-74
2022/06/19 09:07:02;;;;;;;0.00;0.00;;;33.00;44.10;;;;;;5051776;28;20029;-74
2022/06/19 09:09:35;;;;;;;0.00;0.00;;;32.80;45.00;;;;;;5051904;28;20029;-74
2022/06/19 09:12:08;;;;;;;0.10;0.10;;;33.10;45.20;;;;;;5051884;28;20087;-74
2022/06/19 09:15:09;;;;;;;0.00;0.00;;;33.50;45.30;;;;;;5051745;28;20021;-74
2022/06/19 09:17:43;;;;;;;6.32;2.63;;;33.70;45.30;;;;;;5051565;28;20021;-74
2022/06/19 09:20:34;;;;;;;0.00;0.00;;;33.80;44.00;;;;;;5051338;28;20029;-74
2022/06/19 09:23:27;;;;;;;0.10;0.10;;;34.10;44.00;;;;;;5033837;28;20399;-74
2022/06/19 09:26:09;;;;;;;0.00;0.00;;;34.20;42.90;;;;;;5051784;28;20025;-74
2022/06/19 09:29:06;;;;;;;0.00;0.00;;;34.00;42.70;;;;;;5033750;28;20078;-74
2022/06/19 09:31:54;;;;;;;0.30;0.30;;;34.10;43.50;;;;;;5020775;28;20048;-74
2022/06/19 09:34:41;;;;;;;0.03;0.03;;;34.00;43.70;;;;;;5051637;28;20049;-74
2022/06/19 09:37:30;;;;;;;0.20;0.10;;;34.50;44.70;;;;;;5051467;28;20025;-74
2022/06/19 09:40:01;;;;;;;0.00;0.00;;;34.80;42.50;;;;;;5051670;28;20032;-74
2022/06/19 09:42:37;;;;;;;0.25;0.15;;;35.00;42.00;;;;;;5047738;22;20056;-71
2022/06/19 09:45:02;;;;;;;0.10;0.10;;;35.20;41.00;;;;;;5050900;28;20076;-72
2022/06/19 09:47:32;;;;;;;0.00;0.00;;;35.30;41.90;;;;;;5051624;28;20029;-72
2022/06/19 09:50:19;;;;;;;0.00;0.00;;;35.30;42.30;;;;;;5033710;28;20021;-72
2022/06/19 09:52:57;;;;;;;1.17;0.20;;;35.50;42.10;;;;;;5051411;28;20051;-72
2022/06/19 09:55:32;;;;;;;0.15;0.13;;;35.50;41.20;;;;;;5051585;28;20037;-72
2022/06/19 09:58:11;;;;;;;0.00;0.00;;;35.30;41.30;;;;;;5051265;28;20028;-72
2022/06/19 10:00:40;;;;;;;0.38;0.32;;;35.30;41.70;;;;;;5051475;28;20265;-71
2022/06/19 10:03:18;;;;;;;0.22;0.22;;;35.30;40.80;;;;;;5051329;28;20017;-70
2022/06/19 10:06:17;;;;;;;0.00;0.00;;;35.60;41.50;;;;;;5051346;28;20376;-70
2022/06/19 10:09:24;;;;;;;0.00;0.00;;;35.50;40.60;;;;;;5006981;28;20094;-72
2022/06/19 10:11:54;;;;;;;0.40;0.40;;;35.80;41.80;;;;;;5050864;28;20048;-71
2022/06/19 10:14:41;;;;;;;0.00;0.00;;;35.80;40.60;;;;;;5051595;28;20025;-71
2022/06/19 10:17:27;;;;;;;0.20;0.20;;;35.80;40.60;;;;;;5033550;28;20060;-71
2022/06/19 10:20:12;;;;;;;0.00;0.00;;;35.60;40.90;;;;;;5051255;28;20105;-71
2022/06/19 10:22:44;;;;;;;0.00;0.00;;;35.80;41.20;;;;;;5051328;28;20021;-71
2022/06/19 10:25:39;;;;;;;0.00;0.00;;;36.10;40.50;;;;;;5033389;28;20025;-71
2022/06/19 10:28:33;;;;;;;2.92;0.57;;;36.20;40.80;;;;;;5033463;28;20021;-71
2022/06/19 10:31:05;;;;;;;0.85;0.65;;;36.50;39.60;;;;;;5051295;28;20079;-71
2022/06/19 10:33:52;;;;;;;0.00;0.00;;;36.60;38.90;;;;;;5054726;28;20523;-71
2022/06/19 10:36:52;;;;;;;0.00;0.00;;;36.50;38.50;;;;;;5054609;28;20029;-73
2022/06/19 10:39:43;;;;;;;0.30;0.30;;;36.60;38.30;;;;;;5054595;28;20476;-71
2022/06/19 10:42:39;;;;;;;0.00;0.00;;;36.50;38.10;;;;;;5036708;28;20025;-71
2022/06/19 10:45:11;;;;;;;0.22;0.22;;;36.70;38.10;;;;;;5019889;28;20083;-71
2022/06/19 10:47:42;;;;;;;0.22;0.20;;;36.50;37.30;;;;;;5036539;28;20396;-71
2022/06/19 10:50:23;;;;;;;0.20;0.20;;;36.20;38.20;;;;;;5054391;28;20032;-70
2022/06/19 10:53:10;;;;;;;0.00;0.00;;;36.20;38.00;;;;;;5054391;28;20033;-71
2022/06/19 10:55:44;;;;;;;4.22;1.80;;;36.50;38.50;;;;;;5054292;28;20035;-71
2022/06/19 10:58:21;;;;;;;0.00;0.00;;;36.60;36.80;;;;;;5036342;28;20480;-71
2022/06/19 11:00:52;;;;;;;2.33;0.90;;;36.90;38.70;;;;;;5054171;28;20021;-71
2022/06/19 11:06:20;;;;;;;0.10;0.03;;;37.40;37.80;;;;;;5054486;28;20033;-71
2022/06/19 11:08:53;;;;;;;4.28;2.08;;;37.50;37.40;;;;;;5036554;28;20025;-71
2022/06/19 11:11:22;;;;;;;0.77;0.77;;;37.30;38.10;;;;;;5054141;28;20033;-71
2022/06/19 11:14:10;;;;;;;0.10;0.10;;;37.00;37.90;;;;;;5054060;28;20121;-71
2022/06/19 11:16:55;;;;;;;0.00;0.00;;;37.10;38.20;;;;;;5053845;28;20354;-71
2022/06/19 11:19:32;;;;;;;0.32;0.32;;;37.50;38.30;;;;;;5053656;28;20462;-71
2022/06/19 11:21:58;;;;;;;8.07;0.90;;;37.60;37.90;;;;;;5053909;28;20052;-71
2022/06/19 11:24:28;;;;;;;0.00;0.00;;;37.70;37.00;;;;;;5053925;28;20024;-71
2022/06/19 11:26:56;;;;;;;2.45;1.77;;;37.70;37.20;;;;;;5053383;28;20033;-71
2022/06/19 11:29:26;;;;;;;2.08;0.30;;;37.30;37.50;;;;;;5053628;28;20035;-71
2022/06/19 11:32:22;;;;;;;0.00;0.00;;;36.80;37.20;;;;;;5035728;28;20031;-71
2022/06/19 11:35:07;;;;;;;0.40;0.28;;;37.00;37.50;;;;;;5037094;28;20119;-71
2022/06/19 11:37:37;;;;;;;0.00;0.00;;;37.20;37.20;;;;;;5053380;28;20029;-71
2022/06/19 11:40:05;;;;;;;0.10;0.10;;;37.50;37.40;;;;;;5053414;28;20044;-71
2022/06/19 11:42:45;;;;;;;0.40;0.40;;;37.50;37.20;;;;;;5053062;28;20032;-71
2022/06/19 11:45:14;;;;;;;1.33;0.25;;;37.60;36.80;;;;;;5053284;28;20052;-71
2022/06/19 11:47:41;;;;;;;0.40;0.32;;;37.40;36.50;;;;;;5053605;28;20025;-71
2022/06/19 11:50:23;;;;;;;3.50;1.50;;;37.50;36.80;;;;;;5053195;28;20100;-71
2022/06/19 11:52:59;;;;;;;2.20;0.95;;;36.80;37.10;;;;;;5035286;28;20098;-71
2022/06/19 11:55:30;;;;;;;0.50;0.50;;;36.70;37.80;;;;;;5035327;28;20025;-71
2022/06/19 11:58:11;;;;;;;0.00;0.00;;;36.50;37.90;;;;;;5053094;28;20033;-70
2022/06/19 12:00:36;;;;;;;0.00;0.00;;;36.70;37.40;;;;;;5053148;28;20025;-71
2022/06/19 12:03:14;;;;;;;0.10;0.10;;;36.90;37.80;;;;;;5035289;28;20025;-71
2022/06/19 12:05:52;;;;;;;0.00;0.00;;;36.80;38.20;;;;;;5034819;28;20091;-71
2022/06/19 12:08:58;;;;;;;1.10;0.40;;;36.80;37.80;;;;;;5052583;28;20049;-71
2022/06/19 12:11:40;;;;;;;0.00;0.00;;;37.00;37.80;;;;;;5034632;28;20031;-71
2022/06/19 12:14:09;;;;;;;2.40;0.95;;;36.70;37.10;;;;;;5052811;28;20025;-71
2022/06/19 12:16:35;;;;;;;0.50;0.50;;;36.50;37.70;;;;;;5052495;28;20028;-71
2022/06/19 12:19:22;;;;;;;0.80;0.50;;;35.80;38.30;;;;;;5052663;28;20492;-71
2022/06/19 12:21:57;;;;;;;0.47;0.47;;;35.70;38.80;;;;;;5052702;28;20029;-71
2022/06/19 12:24:31;;;;;;;0.00;0.00;;;35.90;39.00;;;;;;5034771;28;20032;-71
2022/06/19 12:27:00;;;;;;;0.00;0.00;;;36.20;38.50;;;;;;5052389;28;20021;-71
2022/06/19 12:29:37;;;;;;;0.00;0.00;;;36.40;38.10;;;;;;5052535;28;20417;-71
2022/06/19 12:32:10;;;;;;;0.20;0.20;;;36.10;37.60;;;;;;5052645;28;20040;-71
2022/06/19 12:34:40;;;;;;;0.45;0.45;;;35.70;38.90;;;;;;5052539;28;20082;-71
2022/06/19 12:37:15;;;;;;;0.73;0.57;;;35.70;39.60;;;;;;5034384;28;20439;-71
2022/06/19 12:39:43;;;;;;;0.00;0.00;;;35.80;39.00;;;;;;5052264;28;20032;-71
2022/06/19 12:42:14;;;;;;;0.10;0.10;;;35.80;38.70;;;;;;5052265;28;20032;-71
2022/06/19 12:44:58;;;;;;;0.20;0.20;;;35.80;38.20;;;;;;5052145;28;20028;-71
2022/06/19 12:47:34;;;;;;;0.00;0.00;;;35.90;37.90;;;;;;5034362;28;20021;-71
2022/06/19 12:50:19;;;;;;;1.17;0.57;;;35.90;38.10;;;;;;5034188;28;20116;-71
2022/06/19 12:53:07;;;;;;;0.05;0.05;;;35.80;37.60;;;;;;5052129;28;20408;-70
2022/06/19 12:56:01;;;;;;;0.35;0.08;;;35.60;39.40;;;;;;5033609;28;20029;-71
2022/06/19 12:59:01;;;;;;;0.00;0.00;;;35.70;40.00;;;;;;5034152;28;20029;-71
2022/06/19 13:01:39;;;;;;;0.20;0.10;;;35.70;39.60;;;;;;5034205;28;20029;-71
2022/06/19 13:04:46;;;;;;;0.65;0.65;;;35.60;40.30;;;;;;5051911;28;20068;-71
2022/06/19 13:07:34;;;;;;;0.00;0.00;;;35.30;40.60;;;;;;5033851;28;20094;-71
2022/06/19 13:10:03;;;;;;;0.00;0.00;;;35.30;40.60;;;;;;5051971;28;20139;-71
2022/06/19 13:12:44;;;;;;;0.00;0.00;;;35.30;40.70;;;;;;5034008;28;20025;-71
2022/06/19 13:15:22;;;;;;;5.05;3.10;;;35.30;40.20;;;;;;5034260;28;20128;-74
2022/06/19 13:18:21;;;;;;;0.25;0.25;;;35.30;40.80;;;;;;5051402;28;20032;-71
2022/06/19 13:21:31;;;;;;;0.00;0.00;;;35.20;40.30;;;;;;5051848;28;20025;-71
2022/06/19 13:24:13;;;;;;;0.88;0.88;;;35.20;40.40;;;;;;5024988;28;20392;-71
2022/06/19 13:30:11;;;;;;;0.13;0.13;;;35.10;41.10;;;;;;5051535;28;20024;-72